Time;durP1;ratioP1;P1;durP2;ratioP2;P2;SDS_P1;SDS_P2;PMS_P1;PMS_P2;Temp;Humidity;BMP_temperature;BMP_pressure;BME280_temperature;BME280_humidity;BME280_pressure;Samples;Min_cycle;Max_cycle;Signal;HPM_P1;HPM_P2
2023/02/08 00:02:15;;;;;;;20.60;10.17;;;;;;;-1.39;68.04;102730.00;4989555;28;20073;-78
2023/02/08 00:04:40;;;;;;;22.07;10.53;;;;;;;-1.43;68.40;102733.59;4971796;28;20596;-79
2023/02/08 00:07:07;;;;;;;23.13;11.25;;;;;;;-1.40;68.10;102738.81;4970965;28;20147;-79
2023/02/08 00:09:33;;;;;;;21.88;10.25;;;;;;;-1.51;68.20;102737.25;4971596;28;20034;-79
2023/02/08 00:11:58;;;;;;;20.90;10.57;;;;;;;-1.50;68.39;102731.09;4971541;28;20052;-79
2023/02/08 00:14:26;;;;;;;21.48;10.20;;;;;;;-1.32;67.83;102731.59;4990031;28;20266;-81
2023/02/08 00:16:52;;;;;;;21.23;9.75;;;;;;;-1.46;67.89;102731.03;4990257;28;20124;-79
2023/02/08 00:19:17;;;;;;;21.98;10.38;;;;;;;-1.39;67.98;102732.63;4988996;28;20054;-79
2023/02/08 00:21:42;;;;;;;22.77;9.53;;;;;;;-1.40;67.73;102718.56;4990283;28;20455;-78
2023/02/08 00:24:08;;;;;;;21.17;9.63;;;;;;;-1.31;67.33;102738.63;4987927;28;20759;-79
2023/02/08 00:26:33;;;;;;;22.30;9.93;;;;;;;-1.44;67.59;102734.50;4986327;28;20065;-78
2023/02/08 00:29:00;;;;;;;22.17;10.43;;;;;;;-1.35;67.44;102744.84;4974261;28;20089;-77
2023/02/08 00:31:25;;;;;;;21.48;9.80;;;;;;;-1.47;67.58;102739.84;4972262;28;20083;-79
2023/02/08 00:33:53;;;;;;;20.00;9.67;;;;;;;-1.41;67.58;102739.69;4972625;28;20416;-79
2023/02/08 00:36:18;;;;;;;21.63;10.13;;;;;;;-1.36;67.64;102749.28;4988882;28;20050;-79
2023/02/08 00:38:44;;;;;;;23.10;10.77;;;;;;;-1.39;67.73;102745.81;4991517;28;20089;-78
2023/02/08 00:41:09;;;;;;;23.53;10.53;;;;;;;-1.54;68.28;102739.97;4987339;28;20285;-79
2023/02/08 00:43:36;;;;;;;20.77;10.38;;;;;;;-1.52;68.52;102737.31;4988249;28;20503;-78
2023/02/08 00:46:01;;;;;;;22.67;11.23;;;;;;;-1.51;68.43;102739.91;4970842;28;20049;-78
2023/02/08 00:48:27;;;;;;;24.10;10.37;;;;;;;-1.40;68.16;102744.09;4971922;28;20038;-81
2023/02/08 00:51:03;;;;;;;23.27;10.50;;;;;;;-1.50;68.12;102738.13;4986071;28;20038;-78
2023/02/08 00:53:28;;;;;;;24.83;10.60;;;;;;;-1.56;68.54;102736.50;4955351;28;20036;-79
2023/02/08 00:55:54;;;;;;;21.98;10.18;;;;;;;-1.55;68.45;102740.84;4971271;28;20054;-80
2023/02/08 00:58:21;;;;;;;24.48;11.00;;;;;;;-1.47;68.02;102751.28;4971510;28;20113;-78
2023/02/08 01:00:48;;;;;;;19.77;10.00;;;;;;;-1.56;68.04;102741.78;4969724;28;20038;-78
2023/02/08 01:03:14;;;;;;;22.33;10.38;;;;;;;-1.72;68.12;102746.47;4989665;28;20058;-80
2023/02/08 01:05:40;;;;;;;20.52;9.90;;;;;;;-1.62;67.72;102751.56;4989123;28;20046;-79
2023/02/08 01:08:06;;;;;;;20.30;9.63;;;;;;;-1.72;67.63;102758.81;4988756;28;20045;-79
2023/02/08 01:10:33;;;;;;;19.90;9.98;;;;;;;-1.81;67.75;102759.84;4987920;28;20038;-81
2023/02/08 01:12:58;;;;;;;19.63;9.63;;;;;;;-1.86;67.11;102759.06;4970831;28;20494;-80
2023/02/08 01:15:24;;;;;;;20.43;9.73;;;;;;;-1.81;66.76;102767.75;4986843;28;20030;-79
2023/02/08 01:17:53;;;;;;;17.55;8.73;;;;;;;-1.85;65.65;102759.94;4987392;28;20092;-78
2023/02/08 01:20:19;;;;;;;16.80;7.90;;;;;;;-2.06;65.71;102759.47;4951960;28;20098;-79
2023/02/08 01:22:45;;;;;;;17.45;7.68;;;;;;;-2.05;65.61;102762.97;4969800;28;20042;-78
2023/02/08 01:25:11;;;;;;;17.75;8.93;;;;;;;-1.89;65.23;102771.47;4953207;28;20042;-79
2023/02/08 01:27:36;;;;;;;16.97;8.47;;;;;;;-2.01;64.60;102768.16;4988058;28;20030;-80
2023/02/08 01:30:02;;;;;;;19.67;8.03;;;;;;;-2.06;64.65;102780.56;4969412;28;20030;-79
2023/02/08 01:32:27;;;;;;;17.90;8.13;;;;;;;-2.14;64.79;102764.00;4989461;28;20492;-80
2023/02/08 01:34:53;;;;;;;18.20;8.60;;;;;;;-2.25;64.43;102781.75;4955099;28;20034;-78
2023/02/08 01:37:18;;;;;;;15.53;7.57;;;;;;;-2.27;64.19;102780.91;4987701;28;20356;-78
2023/02/08 01:39:44;;;;;;;26.33;11.07;;;;;;;-2.18;64.19;102783.38;4954597;28;20038;-78
2023/02/08 01:42:13;;;;;;;24.93;10.77;;;;;;;-2.29;63.17;102767.78;4971992;28;20050;-79
2023/02/08 01:45:20;;;;;;;13.20;6.20;;;;;;;-2.19;61.24;102786.94;4973068;28;20067;-79
2023/02/08 01:47:52;;;;;;;16.05;7.03;;;;;;;-2.31;61.20;102782.75;4952161;28;20043;-78
2023/02/08 01:50:18;;;;;;;15.13;7.20;;;;;;;-2.23;61.08;102786.09;4956066;28;20042;-78
2023/02/08 01:52:43;;;;;;;;;;;;;;;-2.14;60.51;102793.84;4960369;28;20148;-79
2023/02/08 01:55:12;;;;;;;13.70;6.22;;;;;;;-2.17;61.08;102790.41;4974029;28;20380;-80
2023/02/08 01:57:38;;;;;;;14.65;6.43;;;;;;;-2.20;60.72;102793.09;4973812;28;20034;-78
2023/02/08 02:00:08;;;;;;;12.03;6.00;;;;;;;-2.38;59.41;102795.16;4957638;28;20042;-77
2023/02/08 02:02:36;;;;;;;11.25;5.68;;;;;;;-2.50;59.09;102782.19;4954289;28;20125;-80
2023/02/08 02:05:02;;;;;;;13.82;6.07;;;;;;;-2.46;58.33;102794.41;4957238;28;20054;-81
2023/02/08 02:07:30;;;;;;;12.95;6.20;;;;;;;-2.52;58.99;102799.78;4973390;28;20034;-80
2023/02/08 02:10:07;;;;;;;13.90;6.10;;;;;;;-2.51;59.05;102787.47;4974604;28;20129;-79
2023/02/08 02:12:33;;;;;;;12.77;6.50;;;;;;;-2.58;59.85;102800.72;4987281;28;20051;-79
2023/02/08 02:14:58;;;;;;;12.70;6.00;;;;;;;-2.74;59.27;102796.59;4956120;28;20445;-82
2023/02/08 02:17:24;;;;;;;13.30;6.05;;;;;;;-2.81;59.96;102798.47;4954356;28;20054;-83
2023/02/08 02:19:58;;;;;;;13.63;5.70;;;;;;;-2.90;59.19;102790.69;4972608;28;20042;-80
2023/02/08 02:22:35;;;;;;;11.48;5.60;;;;;;;-2.93;59.13;102806.53;4973088;28;20053;-81
2023/02/08 02:25:19;;;;;;;10.90;5.57;;;;;;;-3.14;59.15;102809.44;4973529;28;20546;-82
2023/02/08 02:27:56;;;;;;;10.98;5.30;;;;;;;-3.20;59.06;102810.41;4987345;28;20081;-80
2023/02/08 02:30:40;;;;;;;9.75;4.82;;;;;;;-3.25;57.78;102817.50;4990453;28;20120;-80
2023/02/08 02:33:05;;;;;;;9.95;4.78;;;;;;;-3.32;57.06;102807.94;4990124;28;20108;-80
2023/02/08 02:35:51;;;;;;;10.80;5.10;;;;;;;-3.55;56.75;102797.69;4991329;28;20487;-79
2023/02/08 02:38:30;;;;;;;12.63;5.13;;;;;;;-3.37;56.84;102818.53;4971660;28;20038;-79
2023/02/08 02:41:07;;;;;;;10.35;4.50;;;;;;;-3.47;56.64;102822.13;4972457;28;20533;-79
2023/02/08 02:43:54;;;;;;;10.27;4.28;;;;;;;-3.72;56.92;102805.75;4973763;28;20049;-82
2023/02/08 02:46:39;;;;;;;9.68;4.68;;;;;;;-3.65;57.11;102823.22;4983650;28;20051;-81
2023/02/08 02:49:35;;;;;;;12.40;5.05;;;;;;;-3.53;57.06;102822.22;4938764;28;20046;-79
2023/02/08 02:52:23;;;;;;;9.95;4.35;;;;;;;-3.70;57.50;102815.41;4983773;28;20038;-82
2023/02/08 02:54:51;;;;;;;11.23;5.25;;;;;;;-3.75;57.63;102811.91;4956024;28;20096;-79
2023/02/08 02:57:19;;;;;;;12.20;4.75;;;;;;;-3.72;57.63;102839.94;4953329;28;20041;-83
2023/02/08 02:59:45;;;;;;;12.93;5.45;;;;;;;-3.62;57.84;102838.97;4969762;28;20108;-80
2023/02/08 03:02:11;;;;;;;10.05;4.88;;;;;;;-3.73;57.68;102830.31;4970537;28;20492;-80
2023/02/08 03:04:37;;;;;;;9.63;4.47;;;;;;;-3.68;57.80;102834.63;4966644;28;20026;-83
2023/02/08 03:07:12;;;;;;;13.43;5.53;;;;;;;-3.79;57.51;102835.63;4971292;28;20105;-82
2023/02/08 03:09:52;;;;;;;11.52;5.20;;;;;;;-3.85;57.50;102816.41;4966735;28;20047;-81
2023/02/08 03:12:30;;;;;;;9.27;4.65;;;;;;;-3.79;58.22;102835.63;4969777;28;20078;-81
2023/02/08 03:15:10;;;;;;;12.18;5.25;;;;;;;-3.79;58.51;102847.03;4969814;28;20035;-79
2023/02/08 03:17:42;;;;;;;12.15;5.25;;;;;;;-3.78;58.37;102846.13;4969395;28;20085;-80
2023/02/08 03:20:29;;;;;;;11.07;4.90;;;;;;;-3.82;58.94;102844.41;4969464;28;20546;-80
2023/02/08 03:23:15;;;;;;;13.32;5.65;;;;;;;-3.91;60.06;102852.38;4970258;28;20534;-79
2023/02/08 03:25:44;;;;;;;11.25;5.63;;;;;;;-3.95;61.26;102848.94;4969095;28;20033;-80
2023/02/08 03:28:25;;;;;;;13.55;5.50;;;;;;;-3.89;61.16;102845.38;4969941;28;20051;-80
2023/02/08 03:31:26;;;;;;;10.60;4.72;;;;;;;-3.98;61.83;102855.97;4944668;28;20479;-79
2023/02/08 03:33:56;;;;;;;11.05;5.10;;;;;;;-4.07;61.95;102844.66;4968178;28;20385;-79
2023/02/08 03:36:41;;;;;;;12.45;5.38;;;;;;;-4.04;62.15;102830.63;4969217;28;20112;-80
2023/02/08 03:39:09;;;;;;;13.57;5.87;;;;;;;-4.03;62.17;102861.25;4936568;28;20062;-79
2023/02/08 03:41:37;;;;;;;11.23;5.47;;;;;;;-4.05;62.25;102856.03;4951475;28;20121;-78
2023/02/08 03:44:12;;;;;;;13.48;5.38;;;;;;;-4.12;62.63;102841.22;4968782;28;20054;-80
2023/02/08 03:46:40;;;;;;;13.63;5.47;;;;;;;-4.14;62.77;102839.47;4967367;28;20062;-83
2023/02/08 03:49:12;;;;;;;21.30;6.80;;;;;;;-4.14;62.21;102845.59;4931850;28;20035;-78
2023/02/08 03:51:39;;;;;;;15.20;6.40;;;;;;;-4.23;62.44;102850.94;4952523;28;20137;-81
2023/02/08 03:54:07;;;;;;;17.00;7.07;;;;;;;-4.26;62.51;102843.09;4950176;28;20412;-79
2023/02/08 03:56:47;;;;;;;10.63;5.13;;;;;;;-4.18;62.56;102859.63;4940058;28;20042;-81
2023/02/08 03:59:16;;;;;;;13.05;4.07;;;;;;;-4.19;62.35;102860.53;4939319;28;20066;-81
2023/02/08 04:02:01;;;;;;;9.75;4.90;;;;;;;-4.21;62.03;102857.03;4952772;28;20112;-79
2023/02/08 04:04:32;;;;;;;9.07;4.00;;;;;;;-4.19;62.03;102857.91;4968030;28;20147;-80
2023/02/08 04:06:57;;;;;;;8.43;3.72;;;;;;;-4.20;62.06;102857.91;4952632;28;20499;-79
2023/02/08 04:09:23;;;;;;;11.67;5.10;;;;;;;-4.23;61.89;102857.94;4951949;28;20037;-81
2023/02/08 04:11:48;;;;;;;9.17;4.73;;;;;;;-4.21;61.96;102864.94;4949750;28;20462;-81
2023/02/08 04:14:14;;;;;;;11.05;4.88;;;;;;;-4.21;61.81;102875.44;4935180;28;20037;-80
2023/02/08 04:16:39;;;;;;;11.48;5.18;;;;;;;-4.27;62.37;102871.09;4952336;28;20038;-80
2023/02/08 04:19:05;;;;;;;11.10;5.10;;;;;;;-4.27;62.16;102864.97;4931985;29;20039;-81
2023/02/08 04:21:30;;;;;;;14.38;5.18;;;;;;;-4.34;62.27;102885.16;4968060;28;20278;-79
2023/02/08 04:23:56;;;;;;;9.77;4.57;;;;;;;-4.31;62.09;102879.00;4952060;28;20523;-79
2023/02/08 04:26:23;;;;;;;10.03;4.97;;;;;;;-4.38;62.13;102872.03;4951217;28;20050;-80
2023/02/08 04:28:49;;;;;;;8.98;4.32;;;;;;;-4.36;62.67;102888.66;4951803;28;20302;-80
2023/02/08 04:31:15;;;;;;;13.48;5.47;;;;;;;-4.30;62.33;102909.66;4968532;28;20392;-79
2023/02/08 04:33:41;;;;;;;9.68;4.47;;;;;;;-4.39;62.71;102899.22;4953070;28;20045;-78
2023/02/08 04:36:06;;;;;;;8.83;4.57;;;;;;;-4.34;62.71;102910.53;4968261;28;20038;-81
2023/02/08 04:38:32;;;;;;;12.73;5.43;;;;;;;-4.35;63.14;102903.56;4958785;28;20507;-80
2023/02/08 04:40:58;;;;;;;10.77;4.83;;;;;;;-4.39;63.33;102909.72;4948793;28;20049;-78
2023/02/08 04:43:23;;;;;;;6.47;3.20;;;;;;;-4.31;63.50;102905.25;4953583;28;20459;-78
2023/02/08 04:45:50;;;;;;;11.45;5.05;;;;;;;-4.40;63.88;102916.72;4932881;28;20121;-77
2023/02/08 04:48:16;;;;;;;12.02;5.30;;;;;;;-4.37;63.98;102931.59;4934981;28;20053;-78
2023/02/08 04:50:41;;;;;;;;;;;;;;;-4.32;64.18;102951.66;4965859;28;20090;-79
2023/02/08 04:53:07;;;;;;;;;;;;;;;-4.33;64.58;102960.44;4951303;28;19925;-79
2023/02/08 04:55:32;;;;;;;9.07;4.07;;;;;;;-4.28;64.66;102955.16;4957697;28;20346;-80
2023/02/08 04:57:58;;;;;;;13.55;5.70;;;;;;;-4.26;64.34;102946.41;4971203;28;20038;-80
2023/02/08 05:00:24;;;;;;;14.80;6.07;;;;;;;-4.21;64.27;102959.50;4969006;28;20046;-82
2023/02/08 05:02:53;;;;;;;13.40;6.50;;;;;;;-4.33;64.22;102920.16;4951450;28;20292;-79
2023/02/08 05:05:19;;;;;;;11.75;4.82;;;;;;;-4.33;64.01;102938.53;4988169;28;20125;-76
2023/02/08 05:07:46;;;;;;;9.90;4.30;;;;;;;-4.15;64.11;102951.56;4969432;28;20092;-78
2023/02/08 05:10:11;;;;;;;9.73;4.65;;;;;;;-4.15;64.00;102954.19;4945026;28;20462;-78
2023/02/08 05:12:39;;;;;;;11.93;4.73;;;;;;;-4.15;63.95;102948.94;4962927;28;20026;-81
2023/02/08 05:15:06;;;;;;;14.30;5.50;;;;;;;-4.11;64.11;102961.16;4978457;28;20467;-79
2023/02/08 05:17:32;;;;;;;11.52;4.95;;;;;;;-3.96;64.04;102960.19;4960493;28;20054;-78
2023/02/08 05:19:59;;;;;;;11.60;4.97;;;;;;;-3.96;63.94;102959.31;4968798;28;20093;-81
2023/02/08 05:22:25;;;;;;;13.90;5.22;;;;;;;-4.05;64.17;102944.47;4989438;28;20342;-78
2023/02/08 05:24:51;;;;;;;13.73;5.53;;;;;;;-3.89;64.09;102961.00;4953905;28;20030;-78
2023/02/08 05:27:17;;;;;;;12.80;5.22;;;;;;;-3.80;63.93;102970.59;4971534;28;20051;-80
2023/02/08 05:29:42;;;;;;;8.23;3.47;;;;;;;-3.73;63.82;102983.66;4954537;28;21004;-79
2023/02/08 05:32:08;;;;;;;10.13;5.03;;;;;;;-3.87;63.76;102962.75;4971536;28;20088;-77
2023/02/08 05:34:35;;;;;;;11.70;5.53;;;;;;;-3.84;63.61;102969.72;4987154;28;20741;-79
2023/02/08 05:37:01;;;;;;;11.07;5.25;;;;;;;-3.68;63.92;102981.88;4955475;28;20030;-78
2023/02/08 05:39:28;;;;;;;12.00;5.97;;;;;;;-3.68;64.00;102991.50;4986684;28;20037;-81
2023/02/08 05:41:54;;;;;;;13.25;5.70;;;;;;;-3.62;63.88;102997.59;4968675;28;20050;-78
2023/02/08 05:44:20;;;;;;;12.30;4.97;;;;;;;-3.45;63.72;102999.22;4969894;28;20502;-78
2023/02/08 05:46:45;;;;;;;11.17;5.33;;;;;;;-3.44;63.61;103000.97;4954340;28;20285;-79
2023/02/08 05:49:11;;;;;;;11.77;5.23;;;;;;;-3.56;63.45;102970.38;4948382;28;20050;-78
2023/02/08 05:51:37;;;;;;;13.05;5.65;;;;;;;-3.34;63.52;103013.16;4986447;28;20300;-79
2023/02/08 05:54:03;;;;;;;15.20;6.30;;;;;;;-2.68;62.16;102999.28;4970405;28;20125;-78
2023/02/08 05:56:32;;;;;;;18.38;6.97;;;;;;;-1.84;60.14;102999.03;4966676;28;20309;-79
2023/02/08 05:59:09;;;;;;;21.00;7.60;;;;;;;-1.22;57.76;102991.78;4952382;28;20042;-79
2023/02/08 06:01:35;;;;;;;12.93;6.10;;;;;;;-0.88;56.43;102981.47;4965531;28;20043;-79
2023/02/08 06:04:00;;;;;;;16.40;7.00;;;;;;;-0.65;56.47;102996.84;4962181;28;20091;-79
2023/02/08 06:06:26;;;;;;;17.67;6.97;;;;;;;-0.06;54.37;102969.16;4968592;28;20043;-81
2023/02/08 06:08:52;;;;;;;15.68;7.43;;;;;;;0.85;52.08;102991.56;4968746;28;20037;-80
2023/02/08 06:11:18;;;;;;;14.63;6.60;;;;;;;0.81;51.43;102996.06;4951865;28;20062;-77
2023/02/08 06:13:45;;;;;;;14.43;7.22;;;;;;;1.03;51.10;102983.13;4967988;28;20285;-83
2023/02/08 06:16:11;;;;;;;15.15;7.57;;;;;;;1.39;49.98;102980.34;4966431;28;20591;-78
2023/02/08 06:18:37;;;;;;;15.77;7.43;;;;;;;1.07;50.82;102980.38;4948115;28;20035;-75
2023/02/08 06:21:03;;;;;;;21.35;8.60;;;;;;;0.95;51.48;102998.34;4966629;28;20046;-80
2023/02/08 06:23:30;;;;;;;17.73;8.13;;;;;;;1.33;50.50;102980.50;4964971;28;20109;-80
2023/02/08 06:26:03;;;;;;;19.58;8.13;;;;;;;1.67;48.96;102983.03;4964189;28;20087;-79
2023/02/08 06:28:30;;;;;;;15.18;7.55;;;;;;;2.25;47.76;102990.09;4970615;28;20050;-84
2023/02/08 06:30:56;;;;;;;14.68;7.30;;;;;;;2.87;46.64;102960.50;4971867;28;20523;-81
2023/02/08 06:33:22;;;;;;;16.70;7.63;;;;;;;2.95;46.28;102974.38;4970665;28;20042;-79
2023/02/08 06:35:50;;;;;;;17.80;7.65;;;;;;;2.98;45.49;102961.91;4966448;28;20468;-81
2023/02/08 06:38:16;;;;;;;14.48;6.95;;;;;;;3.97;43.44;102959.88;4967436;28;20034;-81
2023/02/08 06:40:41;;;;;;;13.60;6.97;;;;;;;3.01;44.90;102964.44;4964129;28;20478;-80
2023/02/08 06:43:09;;;;;;;14.98;7.03;;;;;;;2.15;47.04;102956.78;4957800;28;20360;-79
2023/02/08 06:45:36;;;;;;;15.70;7.28;;;;;;;2.28;46.93;102964.28;4954823;28;20058;-79
2023/02/08 06:48:04;;;;;;;14.00;7.20;;;;;;;2.81;45.88;102963.38;4970150;28;20094;-83
2023/02/08 06:50:31;;;;;;;13.97;7.07;;;;;;;1.43;48.76;102974.03;4984824;28;20349;-86
2023/02/08 06:52:56;;;;;;;13.35;6.93;;;;;;;1.05;50.38;102983.06;4985207;28;20362;-82
2023/02/08 06:55:22;;;;;;;15.43;7.67;;;;;;;0.24;52.78;102996.66;4985798;28;20042;-84
2023/02/08 06:57:47;;;;;;;14.90;7.03;;;;;;;-0.40;54.71;103006.03;4961939;28;20052;-81
2023/02/08 07:00:14;;;;;;;16.17;7.43;;;;;;;-0.94;56.67;103007.13;5006197;28;20281;-86
2023/02/08 07:02:42;;;;;;;13.20;6.97;;;;;;;-1.27;58.10;102993.66;4966273;28;20077;-87
2023/02/08 07:05:10;;;;;;;18.35;7.78;;;;;;;-1.55;59.38;103004.69;4983793;28;20047;-87
2023/02/08 07:07:37;;;;;;;17.95;7.47;;;;;;;-1.77;59.78;103005.94;4963112;28;20450;-87
2023/02/08 07:10:03;;;;;;;15.10;7.38;;;;;;;-1.59;59.77;103026.75;4978114;28;20083;-85
2023/02/08 07:12:33;;;;;;;15.95;7.45;;;;;;;-0.46;56.88;103005.28;4983996;28;20046;-85
2023/02/08 07:14:59;;;;;;;12.85;6.65;;;;;;;0.32;54.33;103012.34;4982885;28;20490;-86
2023/02/08 07:17:26;;;;;;;12.70;6.00;;;;;;;0.52;53.96;103020.66;4987157;28;20038;-89
2023/02/08 07:20:04;;;;;;;12.65;6.32;;;;;;;0.82;53.05;103015.50;4983739;28;20549;-87
2023/02/08 07:22:52;;;;;;;13.85;6.72;;;;;;;0.83;52.53;102993.38;5007310;28;20030;-82
2023/02/08 07:25:25;;;;;;;14.77;7.22;;;;;;;0.57;52.83;102992.28;5002502;28;20038;-84
2023/02/08 07:27:59;;;;;;;14.38;7.05;;;;;;;0.15;53.43;102984.50;4974655;28;20432;-86
2023/02/08 07:30:34;;;;;;;18.73;7.03;;;;;;;0.09;54.13;102982.00;4975098;28;20057;-88
2023/02/08 07:32:59;;;;;;;12.02;6.28;;;;;;;-0.26;55.56;102999.56;4973228;28;20496;-78
2023/02/08 07:35:28;;;;;;;15.23;6.17;;;;;;;-0.28;56.28;103001.38;4957404;28;20042;-80
2023/02/08 07:37:53;;;;;;;16.42;5.45;;;;;;;-0.23;55.89;102991.56;4971275;28;20054;-82
2023/02/08 07:40:20;;;;;;;13.63;6.43;;;;;;;-0.20;56.13;103000.34;4952285;28;20034;-82
2023/02/08 07:42:48;;;;;;;13.70;7.13;;;;;;;0.09;56.00;103000.50;4978000;28;20041;-82
2023/02/08 07:45:15;;;;;;;12.13;5.97;;;;;;;1.14;52.69;102987.25;4988032;28;20046;-85
2023/02/08 07:47:41;;;;;;;;;;;;;;;1.76;51.52;102992.50;4982495;28;20099;-85
2023/02/08 07:50:11;;;;;;;16.05;6.32;;;;;;;1.90;50.59;103000.91;4977620;28;19956;-81
2023/02/08 07:52:42;;;;;;;14.15;7.15;;;;;;;1.38;51.46;102991.88;4976373;28;20058;-87
2023/02/08 07:55:15;;;;;;;11.60;5.63;;;;;;;0.76;52.17;103005.06;4968085;28;20049;-84
2023/02/08 07:57:47;;;;;;;14.50;6.43;;;;;;;0.27;54.06;103004.50;4994198;28;20110;-85
2023/02/08 08:00:15;;;;;;;13.43;6.00;;;;;;;-0.29;54.22;102967.91;4979432;28;20030;-84
2023/02/08 08:02:41;;;;;;;12.88;6.38;;;;;;;0.04;53.84;103006.81;4976120;28;20062;-82
2023/02/08 08:05:07;;;;;;;18.23;6.78;;;;;;;-0.27;56.06;103018.97;4950182;28;20093;-85
2023/02/08 08:07:35;;;;;;;13.63;5.65;;;;;;;-0.56;57.17;102990.53;4979286;28;20045;-85
2023/02/08 08:10:02;;;;;;;11.90;5.90;;;;;;;-0.77;59.32;103025.28;4976372;28;20054;-84
2023/02/08 08:12:29;;;;;;;12.95;6.63;;;;;;;-0.80;60.40;103022.72;4980134;28;20095;-85
2023/02/08 08:14:57;;;;;;;13.05;6.18;;;;;;;-0.78;60.23;102990.06;4974414;28;21046;-83
2023/02/08 08:17:23;;;;;;;13.63;6.45;;;;;;;-0.70;59.44;103003.16;4988658;28;20081;-80
2023/02/08 08:19:49;;;;;;;15.85;6.60;;;;;;;-0.84;59.55;103019.28;4968623;28;20034;-86
2023/02/08 08:22:17;;;;;;;16.23;6.65;;;;;;;-0.93;59.01;102991.25;4966188;28;20124;-85
2023/02/08 08:24:42;;;;;;;17.48;6.57;;;;;;;-0.97;60.10;103021.25;4989621;28;20506;-83
2023/02/08 08:27:09;;;;;;;16.07;6.87;;;;;;;-0.93;60.01;103000.97;4971486;28;20049;-83
2023/02/08 08:29:36;;;;;;;18.52;6.72;;;;;;;-0.88;59.82;103014.94;4989956;28;20038;-82
2023/02/08 08:32:03;;;;;;;11.30;5.30;;;;;;;-0.67;58.81;103003.94;4962002;28;20046;-83
2023/02/08 08:34:29;;;;;;;14.20;6.85;;;;;;;-0.41;58.67;103005.19;4962916;28;20129;-82
2023/02/08 08:37:01;;;;;;;13.57;6.35;;;;;;;0.19;57.75;103004.69;4985480;28;20121;-83
2023/02/08 08:39:28;;;;;;;12.52;6.55;;;;;;;0.54;57.52;103013.56;4979538;28;20517;-82
2023/02/08 08:41:57;;;;;;;16.33;6.63;;;;;;;1.00;56.14;102985.84;4939553;28;20034;-79
2023/02/08 08:44:23;;;;;;;13.20;5.70;;;;;;;1.91;55.06;102991.16;4955265;28;20061;-85
2023/02/08 08:46:49;;;;;;;12.10;5.72;;;;;;;1.63;52.73;102996.44;4954526;28;20027;-85
2023/02/08 08:49:17;;;;;;;16.92;5.95;;;;;;;1.37;53.53;102997.19;4972671;28;20495;-82
2023/02/08 08:51:43;;;;;;;12.25;5.82;;;;;;;0.69;55.18;103014.94;4955358;28;20101;-79
2023/02/08 08:54:11;;;;;;;12.63;6.15;;;;;;;0.38;56.73;103023.66;4980512;28;20035;-81
2023/02/08 08:56:39;;;;;;;11.73;5.65;;;;;;;0.13;57.68;103001.31;4953752;28;20077;-83
2023/02/08 08:59:06;;;;;;;13.95;6.95;;;;;;;0.50;58.17;103016.31;4960743;28;20479;-83
2023/02/08 09:01:33;;;;;;;11.23;5.95;;;;;;;0.73;57.06;102998.06;4943129;28;20050;-84
2023/02/08 09:03:59;;;;;;;14.25;6.75;;;;;;;1.44;53.69;103012.88;4973146;28;20042;-81
2023/02/08 09:06:27;;;;;;;13.97;6.13;;;;;;;1.38;53.50;103001.56;4956105;28;20049;-82
2023/02/08 09:08:57;;;;;;;11.45;5.63;;;;;;;0.75;54.67;103000.66;4955510;28;20033;-89
2023/02/08 09:11:32;;;;;;;12.50;6.03;;;;;;;0.92;54.17;103030.22;4966768;28;20102;-85
2023/02/08 09:13:58;;;;;;;11.32;5.25;;;;;;;0.77;54.09;103015.63;5008672;28;20031;-83
2023/02/08 09:16:26;;;;;;;14.07;5.50;;;;;;;0.22;54.83;103016.13;4991228;28;20039;-82
2023/02/08 09:18:51;;;;;;;15.32;5.65;;;;;;;-0.20;56.28;102995.91;4985320;28;20061;-80
2023/02/08 09:21:19;;;;;;;12.93;6.40;;;;;;;-0.44;57.45;103031.69;4939247;28;20038;-80
2023/02/08 09:23:48;;;;;;;19.00;6.43;;;;;;;-0.59;58.52;103037.25;4963993;28;20504;-81
2023/02/08 09:26:15;;;;;;;16.20;5.95;;;;;;;-0.92;59.80;103013.25;4955052;28;20042;-81
2023/02/08 09:28:41;;;;;;;14.40;6.43;;;;;;;-1.08;61.41;103021.47;4989387;28;20097;-80
2023/02/08 09:31:19;;;;;;;13.23;5.83;;;;;;;-1.01;61.33;103034.53;4959469;28;20145;-82
2023/02/08 09:33:45;;;;;;;14.38;6.07;;;;;;;-1.11;61.95;103040.00;4955608;28;20038;-79
2023/02/08 09:36:12;;;;;;;14.98;6.95;;;;;;;-1.35;63.75;103036.03;4990810;28;20037;-83
2023/02/08 09:38:38;;;;;;;15.63;6.80;;;;;;;-1.27;64.14;103006.84;4962731;28;20073;-82
2023/02/08 09:41:10;;;;;;;14.07;6.32;;;;;;;-1.01;63.70;103037.19;4959929;28;20483;-82
2023/02/08 09:44:13;;;;;;;16.67;7.65;;;;;;;-1.24;64.62;103045.50;4984669;28;20483;-86
2023/02/08 09:46:40;;;;;;;12.32;5.43;;;;;;;-1.32;64.12;103043.00;4990308;28;20113;-82
2023/02/08 09:49:10;;;;;;;14.73;7.03;;;;;;;-1.29;65.27;103035.94;4959157;28;20073;-84
2023/02/08 09:51:42;;;;;;;15.93;7.20;;;;;;;-1.28;64.88;103039.44;4975511;28;20030;-86
2023/02/08 09:54:18;;;;;;;19.67;7.78;;;;;;;-1.54;66.42;103032.81;4983510;28;20057;-84
2023/02/08 09:56:44;;;;;;;13.75;6.85;;;;;;;-1.53;66.77;103031.91;4974291;28;20069;-87
2023/02/08 09:59:25;;;;;;;16.58;7.00;;;;;;;-1.46;67.77;103043.25;4984312;28;20109;-88
2023/02/08 10:01:53;;;;;;;16.13;7.88;;;;;;;-1.52;68.27;103043.34;4982675;28;20061;-87
2023/02/08 10:05:00;;;;;;;15.85;7.55;;;;;;;-1.52;69.33;103044.22;4963230;28;20054;-85
2023/02/08 10:07:26;;;;;;;18.02;6.82;;;;;;;-1.57;69.34;103005.59;4978667;28;20061;-84
2023/02/08 10:10:00;;;;;;;20.70;9.10;;;;;;;-1.43;69.44;103029.13;4942292;28;20121;-84
2023/02/08 10:13:12;;;;;;;19.08;8.45;;;;;;;-1.15;68.97;103054.16;4969565;28;20066;-82
2023/02/08 10:15:46;;;;;;;14.60;7.32;;;;;;;-1.33;68.48;103042.16;4943371;28;20038;-82
2023/02/08 10:18:24;;;;;;;16.20;7.95;;;;;;;-1.30;68.07;103028.03;4955011;28;20047;-87
2023/02/08 10:21:28;;;;;;;15.73;8.10;;;;;;;-1.52;69.20;103048.63;4967988;28;20482;-78
2023/02/08 10:24:30;;;;;;;18.23;7.53;;;;;;;-1.43;68.79;103037.03;4983682;28;20036;-82
2023/02/08 10:27:21;;;;;;;18.35;7.90;;;;;;;-1.58;69.94;103033.75;4960007;28;20101;-80
2023/02/08 10:29:49;;;;;;;16.13;6.85;;;;;;;-1.78;69.90;103036.72;4992733;28;20026;-80
2023/02/08 10:32:34;;;;;;;18.38;8.15;;;;;;;-1.69;71.09;103030.41;4994566;28;20113;-82
2023/02/08 10:35:47;;;;;;;17.02;7.97;;;;;;;-1.61;71.30;103028.53;4960467;28;20518;-82
2023/02/08 10:38:18;;;;;;;17.73;8.15;;;;;;;-1.81;71.21;103052.56;4988140;28;20049;-83
2023/02/08 10:40:44;;;;;;;18.25;8.02;;;;;;;-1.98;72.07;103018.53;4975677;28;20034;-84
2023/02/08 10:43:43;;;;;;;20.48;8.50;;;;;;;-1.85;72.56;103028.91;4936249;28;20491;-82
2023/02/08 10:46:31;;;;;;;14.07;6.63;;;;;;;-2.02;73.25;103024.75;4959036;28;20078;-81
2023/02/08 10:49:20;;;;;;;17.95;7.55;;;;;;;-2.14;73.88;103033.69;4975064;28;20471;-78
2023/02/08 10:51:46;;;;;;;17.02;7.57;;;;;;;-1.99;73.80;103037.00;4991808;28;20045;-76
2023/02/08 10:54:12;;;;;;;20.90;9.20;;;;;;;-2.13;73.98;103029.31;4974101;28;20398;-80
2023/02/08 10:56:57;;;;;;;16.15;7.78;;;;;;;-2.02;72.91;103034.44;4958306;28;20046;-78
2023/02/08 10:59:34;;;;;;;20.23;8.80;;;;;;;-2.12;73.62;103018.75;4974902;28;20041;-79
2023/02/08 11:02:01;;;;;;;20.35;8.90;;;;;;;-2.00;72.64;103041.41;4964491;28;20034;-81
2023/02/08 11:04:27;;;;;;;19.23;8.32;;;;;;;-2.10;73.36;103028.41;4972835;28;20518;-80
2023/02/08 11:06:55;;;;;;;24.03;10.70;;;;;;;-2.01;74.00;103054.66;4973609;28;20050;-78
2023/02/08 11:09:32;;;;;;;23.17;10.40;;;;;;;-1.83;72.74;103054.34;4974748;28;20658;-78
2023/02/08 11:12:00;;;;;;;19.15;8.63;;;;;;;-1.90;73.18;103052.69;4958118;28;20093;-79
2023/02/08 11:14:30;;;;;;;24.35;9.82;;;;;;;-1.84;73.69;103051.75;4974437;28;20067;-83
2023/02/08 11:16:56;;;;;;;18.27;8.52;;;;;;;-1.78;73.85;103080.66;4973423;28;20085;-79
2023/02/08 11:19:29;;;;;;;19.08;9.40;;;;;;;-1.69;73.00;103069.97;4939609;28;20067;-78
2023/02/08 11:21:56;;;;;;;22.63;9.45;;;;;;;-1.88;73.19;103050.06;4992827;28;20038;-80
2023/02/08 11:24:34;;;;;;;21.88;9.98;;;;;;;-1.95;74.16;103055.41;4975517;28;20089;-83
2023/02/08 11:27:01;;;;;;;20.30;8.30;;;;;;;-1.92;73.64;103036.03;4958474;28;20160;-80
2023/02/08 11:29:28;;;;;;;25.35;10.77;;;;;;;-2.13;76.06;103051.28;4959704;28;20062;-80
2023/02/08 11:32:01;;;;;;;14.63;6.93;;;;;;;-2.07;74.27;103075.81;4957919;28;20045;-78
2023/02/08 11:34:31;;;;;;;30.67;10.20;;;;;;;-2.15;74.32;103057.47;4958525;28;20045;-82